sensor_id;sensor_type;location;lat;lon;timestamp;temperature;humidity
45685;DHT22;46836;48.388;16.210;2022-08-05T00:00:16;24.00;90.90
45685;DHT22;46836;48.388;16.210;2022-08-05T00:02:47;24.00;90.90
45685;DHT22;46836;48.388;16.210;2022-08-05T00:05:21;24.00;91.10
45685;DHT22;46836;48.388;16.210;2022-08-05T00:08:09;23.90;91.40
45685;DHT22;46836;48.388;16.210;2022-08-05T00:11:00;23.90;91.30
45685;DHT22;46836;48.388;16.210;2022-08-05T00:13:35;23.90;91.70
45685;DHT22;46836;48.388;16.210;2022-08-05T00:16:10;23.80;91.70
45685;DHT22;46836;48.388;16.210;2022-08-05T00:18:40;23.80;91.90
45685;DHT22;46836;48.388;16.210;2022-08-05T00:21:10;23.80;91.70
45685;DHT22;46836;48.388;16.210;2022-08-05T00:23:42;23.80;91.70
45685;DHT22;46836;48.388;16.210;2022-08-05T00:26:19;23.80;91.80
45685;DHT22;46836;48.388;16.210;2022-08-05T00:28:48;23.80;91.80
45685;DHT22;46836;48.388;16.210;2022-08-05T00:31:15;23.70;92.20
45685;DHT22;46836;48.388;16.210;2022-08-05T00:34:02;23.70;92.00
45685;DHT22;46836;48.388;16.210;2022-08-05T00:36:50;23.70;92.90
45685;DHT22;46836;48.388;16.210;2022-08-05T00:39:37;23.70;92.30
45685;DHT22;46836;48.388;16.210;2022-08-05T00:42:32;23.60;92.30
45685;DHT22;46836;48.388;16.210;2022-08-05T00:44:59;23.60;93.00
45685;DHT22;46836;48.388;16.210;2022-08-05T00:47:27;23.60;92.60
45685;DHT22;46836;48.388;16.210;2022-08-05T00:50:15;23.60;92.70
45685;DHT22;46836;48.388;16.210;2022-08-05T00:52:42;23.60;92.90
45685;DHT22;46836;48.388;16.210;2022-08-05T00:55:12;23.60;93.10
45685;DHT22;46836;48.388;16.210;2022-08-05T00:57:40;23.60;93.00
45685;DHT22;46836;48.388;16.210;2022-08-05T01:00:25;23.60;93.30
45685;DHT22;46836;48.388;16.210;2022-08-05T01:02:54;23.50;93.40
45685;DHT22;46836;48.388;16.210;2022-08-05T01:05:22;23.50;93.80
45685;DHT22;46836;48.388;16.210;2022-08-05T01:07:51;23.50;93.90
45685;DHT22;46836;48.388;16.210;2022-08-05T01:10:58;23.50;94.20
45685;DHT22;46836;48.388;16.210;2022-08-05T01:31:00;23.30;94.40
45685;DHT22;46836;48.388;16.210;2022-08-05T01:33:33;23.30;94.90
45685;DHT22;46836;48.388;16.210;2022-08-05T01:36:07;23.20;94.60
45685;DHT22;46836;48.388;16.210;2022-08-05T01:38:43;23.20;95.00
45685;DHT22;46836;48.388;16.210;2022-08-05T01:41:17;23.10;95.40
45685;DHT22;46836;48.388;16.210;2022-08-05T01:43:51;23.10;95.00
45685;DHT22;46836;48.388;16.210;2022-08-05T01:46:20;23.10;95.40
45685;DHT22;46836;48.388;16.210;2022-08-05T01:49:10;23.10;95.40
45685;DHT22;46836;48.388;16.210;2022-08-05T01:51:56;23.10;95.70
45685;DHT22;46836;48.388;16.210;2022-08-05T01:54:40;23.00;95.60
45685;DHT22;46836;48.388;16.210;2022-08-05T01:57:15;23.00;95.70
45685;DHT22;46836;48.388;16.210;2022-08-05T02:00:06;23.00;95.70
45685;DHT22;46836;48.388;16.210;2022-08-05T02:02:52;23.00;95.80
45685;DHT22;46836;48.388;16.210;2022-08-05T02:05:24;22.90;96.30
45685;DHT22;46836;48.388;16.210;2022-08-05T02:07:55;22.90;96.10
45685;DHT22;46836;48.388;16.210;2022-08-05T02:10:32;22.80;96.30
45685;DHT22;46836;48.388;16.210;2022-08-05T02:13:18;22.80;96.60
45685;DHT22;46836;48.388;16.210;2022-08-05T02:15:54;22.80;96.80
45685;DHT22;46836;48.388;16.210;2022-08-05T02:18:29;22.70;97.10
45685;DHT22;46836;48.388;16.210;2022-08-05T02:24:17;22.70;97.60
45685;DHT22;46836;48.388;16.210;2022-08-05T02:26:53;22.70;97.90
45685;DHT22;46836;48.388;16.210;2022-08-05T02:29:23;22.70;97.80
45685;DHT22;46836;48.388;16.210;2022-08-05T02:32:12;22.60;98.00
45685;DHT22;46836;48.388;16.210;2022-08-05T02:34:59;22.60;98.10
45685;DHT22;46836;48.388;16.210;2022-08-05T02:37:41;22.60;98.40
45685;DHT22;46836;48.388;16.210;2022-08-05T02:40:20;22.60;98.50
45685;DHT22;46836;48.388;16.210;2022-08-05T02:42:52;22.60;98.70
45685;DHT22;46836;48.388;16.210;2022-08-05T02:45:22;22.60;98.70
45685;DHT22;46836;48.388;16.210;2022-08-05T02:47:52;22.60;98.60
45685;DHT22;46836;48.388;16.210;2022-08-05T02:50:38;22.50;98.50
45685;DHT22;46836;48.388;16.210;2022-08-05T02:53:11;22.50;98.50
45685;DHT22;46836;48.388;16.210;2022-08-05T02:55:49;22.50;98.50
45685;DHT22;46836;48.388;16.210;2022-08-05T02:58:28;22.50;98.80
45685;DHT22;46836;48.388;16.210;2022-08-05T03:00:59;22.50;98.50
45685;DHT22;46836;48.388;16.210;2022-08-05T03:03:28;22.40;98.60
45685;DHT22;46836;48.388;16.210;2022-08-05T03:06:00;22.50;98.40
45685;DHT22;46836;48.388;16.210;2022-08-05T03:08:50;22.40;98.70
45685;DHT22;46836;48.388;16.210;2022-08-05T03:11:25;22.40;98.20
45685;DHT22;46836;48.388;16.210;2022-08-05T03:14:12;22.40;98.50
45685;DHT22;46836;48.388;16.210;2022-08-05T03:16:40;22.40;98.10
45685;DHT22;46836;48.388;16.210;2022-08-05T03:19:07;22.30;98.00
45685;DHT22;46836;48.388;16.210;2022-08-05T03:21:54;22.30;97.90
45685;DHT22;46836;48.388;16.210;2022-08-05T03:24:22;22.30;98.00
45685;DHT22;46836;48.388;16.210;2022-08-05T03:26:59;22.30;97.80
45685;DHT22;46836;48.388;16.210;2022-08-05T03:29:26;22.30;97.90
45685;DHT22;46836;48.388;16.210;2022-08-05T03:32:14;22.20;98.10
45685;DHT22;46836;48.388;16.210;2022-08-05T03:34:42;22.30;98.20
45685;DHT22;46836;48.388;16.210;2022-08-05T03:37:18;22.20;98.30
45685;DHT22;46836;48.388;16.210;2022-08-05T03:39:58;22.20;98.60
45685;DHT22;46836;48.388;16.210;2022-08-05T03:42:28;22.20;99.30
45685;DHT22;46836;48.388;16.210;2022-08-05T03:45:08;22.10;99.00
45685;DHT22;46836;48.388;16.210;2022-08-05T03:47:48;22.10;99.10
45685;DHT22;46836;48.388;16.210;2022-08-05T03:50:16;22.10;99.20
45685;DHT22;46836;48.388;16.210;2022-08-05T03:52:51;22.00;99.40
45685;DHT22;46836;48.388;16.210;2022-08-05T03:55:48;22.00;99.90
45685;DHT22;46836;48.388;16.210;2022-08-05T03:58:37;21.90;99.80
45685;DHT22;46836;48.388;16.210;2022-08-05T04:01:07;21.90;99.60
45685;DHT22;46836;48.388;16.210;2022-08-05T04:03:39;21.90;99.60
45685;DHT22;46836;48.388;16.210;2022-08-05T04:06:28;21.90;99.60
45685;DHT22;46836;48.388;16.210;2022-08-05T04:08:56;22.00;99.60
45685;DHT22;46836;48.388;16.210;2022-08-05T04:11:24;22.00;99.80
45685;DHT22;46836;48.388;16.210;2022-08-05T04:14:11;22.00;99.90
45685;DHT22;46836;48.388;16.210;2022-08-05T04:16:44;22.00;99.90
45685;DHT22;46836;48.388;16.210;2022-08-05T04:19:11;22.00;99.60
45685;DHT22;46836;48.388;16.210;2022-08-05T04:21:40;22.00;99.30
45685;DHT22;46836;48.388;16.210;2022-08-05T04:24:27;22.00;99.40
45685;DHT22;46836;48.388;16.210;2022-08-05T04:26:54;22.00;99.60
45685;DHT22;46836;48.388;16.210;2022-08-05T04:29:24;22.10;99.80
45685;DHT22;46836;48.388;16.210;2022-08-05T04:31:52;22.10;99.90
45685;DHT22;46836;48.388;16.210;2022-08-05T04:34:22;22.00;99.90
45685;DHT22;46836;48.388;16.210;2022-08-05T04:37:00;22.00;99.90
45685;DHT22;46836;48.388;16.210;2022-08-05T04:39:29;22.00;99.90
45685;DHT22;46836;48.388;16.210;2022-08-05T04:41:57;22.10;99.90
45685;DHT22;46836;48.388;16.210;2022-08-05T04:44:24;22.10;99.90
45685;DHT22;46836;48.388;16.210;2022-08-05T04:46:57;22.10;99.90
45685;DHT22;46836;48.388;16.210;2022-08-05T04:49:26;22.10;99.90
45685;DHT22;46836;48.388;16.210;2022-08-05T04:52:14;22.10;99.90
45685;DHT22;46836;48.388;16.210;2022-08-05T04:54:41;22.10;99.90
45685;DHT22;46836;48.388;16.210;2022-08-05T04:57:08;22.10;99.90
45685;DHT22;46836;48.388;16.210;2022-08-05T04:59:35;22.20;99.90
45685;DHT22;46836;48.388;16.210;2022-08-05T05:02:06;22.20;99.90
45685;DHT22;46836;48.388;16.210;2022-08-05T05:04:53;22.20;99.90
45685;DHT22;46836;48.388;16.210;2022-08-05T05:07:29;22.20;99.90
45685;DHT22;46836;48.388;16.210;2022-08-05T05:09:58;22.30;99.90
45685;DHT22;46836;48.388;16.210;2022-08-05T05:12:28;22.40;99.90
45685;DHT22;46836;48.388;16.210;2022-08-05T05:14:55;25.10;99.90
45685;DHT22;46836;48.388;16.210;2022-08-05T05:17:22;28.40;99.90
45685;DHT22;46836;48.388;16.210;2022-08-05T05:20:11;30.90;96.20
45685;DHT22;46836;48.388;16.210;2022-08-05T05:22:40;32.90;92.20
45685;DHT22;46836;48.388;16.210;2022-08-05T05:25:10;34.10;89.70
45685;DHT22;46836;48.388;16.210;2022-08-05T05:27:43;33.70;85.90
45685;DHT22;46836;48.388;16.210;2022-08-05T05:30:19;30.80;89.60
45685;DHT22;46836;48.388;16.210;2022-08-05T05:32:58;28.70;92.90
45685;DHT22;46836;48.388;16.210;2022-08-05T05:35:35;27.10;95.60
45685;DHT22;46836;48.388;16.210;2022-08-05T05:38:08;26.10;97.60
45685;DHT22;46836;48.388;16.210;2022-08-05T05:40:40;25.40;99.40
45685;DHT22;46836;48.388;16.210;2022-08-05T05:43:18;24.90;99.90
45685;DHT22;46836;48.388;16.210;2022-08-05T05:46:06;24.60;99.90
45685;DHT22;46836;48.388;16.210;2022-08-05T05:48:41;24.30;99.90
45685;DHT22;46836;48.388;16.210;2022-08-05T05:51:10;24.10;99.90
45685;DHT22;46836;48.388;16.210;2022-08-05T05:53:42;24.00;99.90
45685;DHT22;46836;48.388;16.210;2022-08-05T05:56:29;24.00;99.90
45685;DHT22;46836;48.388;16.210;2022-08-05T05:59:06;24.00;99.90
45685;DHT22;46836;48.388;16.210;2022-08-05T06:01:35;24.00;99.90
45685;DHT22;46836;48.388;16.210;2022-08-05T06:04:10;24.10;99.90
45685;DHT22;46836;48.388;16.210;2022-08-05T06:06:42;24.10;99.90
45685;DHT22;46836;48.388;16.210;2022-08-05T06:09:15;24.10;99.90
45685;DHT22;46836;48.388;16.210;2022-08-05T06:11:53;24.20;99.90
45685;DHT22;46836;48.388;16.210;2022-08-05T06:14:31;24.30;99.90
45685;DHT22;46836;48.388;16.210;2022-08-05T06:17:01;24.30;99.90
45685;DHT22;46836;48.388;16.210;2022-08-05T06:19:48;24.40;99.90
45685;DHT22;46836;48.388;16.210;2022-08-05T06:22:30;24.40;99.90
45685;DHT22;46836;48.388;16.210;2022-08-05T06:25:00;24.50;99.90
45685;DHT22;46836;48.388;16.210;2022-08-05T06:27:47;24.50;99.90
45685;DHT22;46836;48.388;16.210;2022-08-05T06:30:34;24.50;99.90
45685;DHT22;46836;48.388;16.210;2022-08-05T06:33:01;24.60;99.90
45685;DHT22;46836;48.388;16.210;2022-08-05T06:35:28;24.70;99.90
45685;DHT22;46836;48.388;16.210;2022-08-05T06:38:15;24.70;99.90
45685;DHT22;46836;48.388;16.210;2022-08-05T06:40:42;24.80;99.90
45685;DHT22;46836;48.388;16.210;2022-08-05T06:43:11;24.90;99.90
45685;DHT22;46836;48.388;16.210;2022-08-05T06:45:58;25.00;99.90
45685;DHT22;46836;48.388;16.210;2022-08-05T06:48:33;25.00;99.90
45685;DHT22;46836;48.388;16.210;2022-08-05T06:51:21;25.10;99.90
45685;DHT22;46836;48.388;16.210;2022-08-05T06:53:59;25.20;99.90
45685;DHT22;46836;48.388;16.210;2022-08-05T06:56:28;25.30;99.90
45685;DHT22;46836;48.388;16.210;2022-08-05T06:59:01;25.30;99.90
45685;DHT22;46836;48.388;16.210;2022-08-05T07:01:28;25.40;99.90
45685;DHT22;46836;48.388;16.210;2022-08-05T07:03:59;25.50;99.90
45685;DHT22;46836;48.388;16.210;2022-08-05T07:06:28;25.50;99.90
45685;DHT22;46836;48.388;16.210;2022-08-05T07:08:55;25.60;99.90
45685;DHT22;46836;48.388;16.210;2022-08-05T07:11:24;25.70;99.90
45685;DHT22;46836;48.388;16.210;2022-08-05T07:13:54;25.80;99.90
45685;DHT22;46836;48.388;16.210;2022-08-05T07:16:47;25.90;99.90
45685;DHT22;46836;48.388;16.210;2022-08-05T07:19:35;26.00;99.90
45685;DHT22;46836;48.388;16.210;2022-08-05T07:22:22;26.00;99.90
45685;DHT22;46836;48.388;16.210;2022-08-05T07:24:57;26.10;99.90
45685;DHT22;46836;48.388;16.210;2022-08-05T07:27:24;26.20;99.90
45685;DHT22;46836;48.388;16.210;2022-08-05T07:30:04;26.30;99.90
45685;DHT22;46836;48.388;16.210;2022-08-05T07:32:52;26.40;99.90
45685;DHT22;46836;48.388;16.210;2022-08-05T07:35:19;26.50;99.90
45685;DHT22;46836;48.388;16.210;2022-08-05T07:38:06;26.70;99.90
45685;DHT22;46836;48.388;16.210;2022-08-05T07:40:38;26.70;99.90
45685;DHT22;46836;48.388;16.210;2022-08-05T07:43:10;26.80;99.90
45685;DHT22;46836;48.388;16.210;2022-08-05T07:45:46;26.90;99.90
45685;DHT22;46836;48.388;16.210;2022-08-05T07:48:24;27.00;99.90
45685;DHT22;46836;48.388;16.210;2022-08-05T07:51:12;27.10;99.90
45685;DHT22;46836;48.388;16.210;2022-08-05T07:54:01;27.20;99.90
45685;DHT22;46836;48.388;16.210;2022-08-05T07:56:28;27.30;99.90
45685;DHT22;46836;48.388;16.210;2022-08-05T07:59:15;27.40;99.90
45685;DHT22;46836;48.388;16.210;2022-08-05T08:01:49;27.40;99.70
45685;DHT22;46836;48.388;16.210;2022-08-05T08:04:22;27.50;99.40
45685;DHT22;46836;48.388;16.210;2022-08-05T08:07:04;27.70;99.60
45685;DHT22;46836;48.388;16.210;2022-08-05T08:09:33;27.80;99.50
45685;DHT22;46836;48.388;16.210;2022-08-05T08:12:03;27.90;99.30
45685;DHT22;46836;48.388;16.210;2022-08-05T08:14:45;28.10;99.00
45685;DHT22;46836;48.388;16.210;2022-08-05T08:17:13;28.10;98.70
45685;DHT22;46836;48.388;16.210;2022-08-05T08:19:43;28.30;98.90
45685;DHT22;46836;48.388;16.210;2022-08-05T08:22:31;28.30;98.50
45685;DHT22;46836;48.388;16.210;2022-08-05T08:25:00;28.40;98.30
45685;DHT22;46836;48.388;16.210;2022-08-05T08:27:30;28.50;98.00
45685;DHT22;46836;48.388;16.210;2022-08-05T08:30:11;28.60;98.10
45685;DHT22;46836;48.388;16.210;2022-08-05T08:32:58;28.80;97.80
45685;DHT22;46836;48.388;16.210;2022-08-05T08:35:30;28.90;97.50
45685;DHT22;46836;48.388;16.210;2022-08-05T08:38:07;29.00;97.40
45685;DHT22;46836;48.388;16.210;2022-08-05T08:40:42;29.10;97.40
45685;DHT22;46836;48.388;16.210;2022-08-05T08:43:18;29.20;97.30
45685;DHT22;46836;48.388;16.210;2022-08-05T08:46:05;29.30;97.20
45685;DHT22;46836;48.388;16.210;2022-08-05T08:48:36;29.40;97.20
45685;DHT22;46836;48.388;16.210;2022-08-05T08:51:31;29.50;97.00
45685;DHT22;46836;48.388;16.210;2022-08-05T08:54:19;29.60;96.50
45685;DHT22;46836;48.388;16.210;2022-08-05T08:56:53;29.80;96.60
45685;DHT22;46836;48.388;16.210;2022-08-05T08:59:22;29.80;96.30
45685;DHT22;46836;48.388;16.210;2022-08-05T09:02:00;29.90;96.00
45685;DHT22;46836;48.388;16.210;2022-08-05T09:04:35;30.00;95.80
45685;DHT22;46836;48.388;16.210;2022-08-05T09:07:23;30.10;96.20
45685;DHT22;46836;48.388;16.210;2022-08-05T09:10:05;30.10;95.60
45685;DHT22;46836;48.388;16.210;2022-08-05T09:12:33;30.30;95.60
45685;DHT22;46836;48.388;16.210;2022-08-05T09:15:03;30.40;95.90
45685;DHT22;46836;48.388;16.210;2022-08-05T09:17:33;30.50;95.70
45685;DHT22;46836;48.388;16.210;2022-08-05T09:20:09;30.50;95.60
45685;DHT22;46836;48.388;16.210;2022-08-05T09:23:11;30.70;95.70
45685;DHT22;46836;48.388;16.210;2022-08-05T09:25:51;30.80;95.10
45685;DHT22;46836;48.388;16.210;2022-08-05T09:28:32;30.90;95.20
45685;DHT22;46836;48.388;16.210;2022-08-05T09:31:04;31.00;95.40
45685;DHT22;46836;48.388;16.210;2022-08-05T09:33:57;31.00;95.30
45685;DHT22;46836;48.388;16.210;2022-08-05T09:39:22;31.10;94.60
45685;DHT22;46836;48.388;16.210;2022-08-05T09:42:10;31.20;94.70
45685;DHT22;46836;48.388;16.210;2022-08-05T09:44:53;31.30;95.00
45685;DHT22;46836;48.388;16.210;2022-08-05T09:47:26;31.50;95.30
45685;DHT22;46836;48.388;16.210;2022-08-05T09:50:13;31.60;95.00
45685;DHT22;46836;48.388;16.210;2022-08-05T09:53:04;31.70;95.10
45685;DHT22;46836;48.388;16.210;2022-08-05T09:55:35;31.70;94.50
45685;DHT22;46836;48.388;16.210;2022-08-05T09:58:22;31.80;94.80
45685;DHT22;46836;48.388;16.210;2022-08-05T10:01:05;31.80;94.80
45685;DHT22;46836;48.388;16.210;2022-08-05T10:03:54;31.80;95.00
45685;DHT22;46836;48.388;16.210;2022-08-05T10:06:25;32.00;94.50
45685;DHT22;46836;48.388;16.210;2022-08-05T10:09:16;32.10;94.70
45685;DHT22;46836;48.388;16.210;2022-08-05T10:11:54;32.10;93.40
45685;DHT22;46836;48.388;16.210;2022-08-05T10:14:30;32.20;93.90
45685;DHT22;46836;48.388;16.210;2022-08-05T10:17:14;32.20;93.50
45685;DHT22;46836;48.388;16.210;2022-08-05T10:20:02;32.30;92.40
45685;DHT22;46836;48.388;16.210;2022-08-05T10:22:38;32.40;92.80
45685;DHT22;46836;48.388;16.210;2022-08-05T10:25:09;32.50;92.90
45685;DHT22;46836;48.388;16.210;2022-08-05T10:27:40;32.70;92.60
45685;DHT22;46836;48.388;16.210;2022-08-05T10:30:27;32.80;92.40
45685;DHT22;46836;48.388;16.210;2022-08-05T10:33:14;32.80;92.10
45685;DHT22;46836;48.388;16.210;2022-08-05T10:35:41;32.90;91.80
45685;DHT22;46836;48.388;16.210;2022-08-05T10:38:12;33.00;91.90
45685;DHT22;46836;48.388;16.210;2022-08-05T10:41:03;33.00;91.30
45685;DHT22;46836;48.388;16.210;2022-08-05T10:43:56;33.10;90.50
45685;DHT22;46836;48.388;16.210;2022-08-05T10:46:45;33.10;90.40
45685;DHT22;46836;48.388;16.210;2022-08-05T10:49:21;33.20;90.20
45685;DHT22;46836;48.388;16.210;2022-08-05T10:51:59;33.10;90.70
45685;DHT22;46836;48.388;16.210;2022-08-05T10:55:04;33.10;90.90
45685;DHT22;46836;48.388;16.210;2022-08-05T10:57:31;33.20;89.50
45685;DHT22;46836;48.388;16.210;2022-08-05T11:00:18;33.20;90.90
45685;DHT22;46836;48.388;16.210;2022-08-05T11:06:02;33.40;90.00
45685;DHT22;46836;48.388;16.210;2022-08-05T11:08:30;33.50;91.00
45685;DHT22;46836;48.388;16.210;2022-08-05T11:11:35;33.50;90.80
45685;DHT22;46836;48.388;16.210;2022-08-05T11:20:44;33.60;89.20
45685;DHT22;46836;48.388;16.210;2022-08-05T11:26:26;33.80;88.10
45685;DHT22;46836;48.388;16.210;2022-08-05T11:29:03;33.90;90.10
45685;DHT22;46836;48.388;16.210;2022-08-05T11:31:43;34.00;89.20
45685;DHT22;46836;48.388;16.210;2022-08-05T11:34:40;34.10;88.40
45685;DHT22;46836;48.388;16.210;2022-08-05T11:40:57;34.30;87.70
45685;DHT22;46836;48.388;16.210;2022-08-05T11:43:43;34.30;88.00
45685;DHT22;46836;48.388;16.210;2022-08-05T11:49:04;34.30;86.90
45685;DHT22;46836;48.388;16.210;2022-08-05T11:51:35;34.30;87.40
45685;DHT22;46836;48.388;16.210;2022-08-05T11:54:27;34.40;87.20
45685;DHT22;46836;48.388;16.210;2022-08-05T11:57:01;34.50;85.20
45685;DHT22;46836;48.388;16.210;2022-08-05T11:59:48;34.60;86.40
45685;DHT22;46836;48.388;16.210;2022-08-05T12:02:16;34.70;86.60
45685;DHT22;46836;48.388;16.210;2022-08-05T12:04:55;34.80;85.00
45685;DHT22;46836;48.388;16.210;2022-08-05T12:07:25;34.90;84.90
45685;DHT22;46836;48.388;16.210;2022-08-05T12:10:20;34.90;83.80
45685;DHT22;46836;48.388;16.210;2022-08-05T12:13:04;35.00;82.50
45685;DHT22;46836;48.388;16.210;2022-08-05T12:15:43;35.00;83.70
45685;DHT22;46836;48.388;16.210;2022-08-05T12:18:18;35.10;83.80
45685;DHT22;46836;48.388;16.210;2022-08-05T12:20:50;35.20;83.30
45685;DHT22;46836;48.388;16.210;2022-08-05T12:23:17;35.20;82.80
45685;DHT22;46836;48.388;16.210;2022-08-05T12:25:51;35.30;82.00
45685;DHT22;46836;48.388;16.210;2022-08-05T12:28:36;35.40;81.70
45685;DHT22;46836;48.388;16.210;2022-08-05T12:31:04;35.50;78.70
45685;DHT22;46836;48.388;16.210;2022-08-05T12:33:32;35.50;80.60
45685;DHT22;46836;48.388;16.210;2022-08-05T12:36:07;35.50;79.70
45685;DHT22;46836;48.388;16.210;2022-08-05T12:38:36;35.60;76.90
45685;DHT22;46836;48.388;16.210;2022-08-05T12:41:11;35.70;77.30
45685;DHT22;46836;48.388;16.210;2022-08-05T12:43:57;35.70;75.40
45685;DHT22;46836;48.388;16.210;2022-08-05T12:46:27;35.70;74.00
45685;DHT22;46836;48.388;16.210;2022-08-05T12:49:01;35.60;75.20
45685;DHT22;46836;48.388;16.210;2022-08-05T12:51:49;35.60;74.70
45685;DHT22;46836;48.388;16.210;2022-08-05T12:54:37;35.60;74.10
45685;DHT22;46836;48.388;16.210;2022-08-05T12:57:06;35.70;75.20
45685;DHT22;46836;48.388;16.210;2022-08-05T12:59:53;35.80;74.70
45685;DHT22;46836;48.388;16.210;2022-08-05T13:02:40;35.90;72.50
45685;DHT22;46836;48.388;16.210;2022-08-05T13:05:07;36.00;74.10
45685;DHT22;46836;48.388;16.210;2022-08-05T13:07:39;36.00;74.30
45685;DHT22;46836;48.388;16.210;2022-08-05T13:10:25;36.10;74.40
45685;DHT22;46836;48.388;16.210;2022-08-05T13:12:55;36.10;73.20
45685;DHT22;46836;48.388;16.210;2022-08-05T13:15:29;36.10;70.40
45685;DHT22;46836;48.388;16.210;2022-08-05T13:18:17;36.00;69.60
45685;DHT22;46836;48.388;16.210;2022-08-05T13:20:46;36.00;71.30
45685;DHT22;46836;48.388;16.210;2022-08-05T13:23:16;36.00;70.70
45685;DHT22;46836;48.388;16.210;2022-08-05T13:25:49;36.10;71.30
45685;DHT22;46836;48.388;16.210;2022-08-05T13:28:27;36.10;71.80
45685;DHT22;46836;48.388;16.210;2022-08-05T13:30:58;36.20;70.90
45685;DHT22;46836;48.388;16.210;2022-08-05T13:33:29;36.30;72.30
45685;DHT22;46836;48.388;16.210;2022-08-05T13:36:16;36.30;71.10
45685;DHT22;46836;48.388;16.210;2022-08-05T13:38:44;36.30;70.00
45685;DHT22;46836;48.388;16.210;2022-08-05T13:41:17;36.30;70.90
45685;DHT22;46836;48.388;16.210;2022-08-05T13:43:48;36.30;71.30
45685;DHT22;46836;48.388;16.210;2022-08-05T13:46:22;36.40;70.10
45685;DHT22;46836;48.388;16.210;2022-08-05T13:49:09;36.30;68.10
45685;DHT22;46836;48.388;16.210;2022-08-05T13:51:38;36.30;68.60
45685;DHT22;46836;48.388;16.210;2022-08-05T13:54:13;36.40;68.30
45685;DHT22;46836;48.388;16.210;2022-08-05T13:56:43;36.40;68.60
45685;DHT22;46836;48.388;16.210;2022-08-05T13:59:21;36.50;68.50
45685;DHT22;46836;48.388;16.210;2022-08-05T14:01:55;36.60;68.10
45685;DHT22;46836;48.388;16.210;2022-08-05T14:04:33;36.60;66.90
45685;DHT22;46836;48.388;16.210;2022-08-05T14:07:20;36.60;66.90
45685;DHT22;46836;48.388;16.210;2022-08-05T14:10:16;36.70;68.20
45685;DHT22;46836;48.388;16.210;2022-08-05T14:12:54;36.80;66.80
45685;DHT22;46836;48.388;16.210;2022-08-05T14:15:23;36.70;68.00
45685;DHT22;46836;48.388;16.210;2022-08-05T14:18:11;36.70;68.50
45685;DHT22;46836;48.388;16.210;2022-08-05T14:20:45;36.70;67.60
45685;DHT22;46836;48.388;16.210;2022-08-05T14:23:15;36.70;67.60
45685;DHT22;46836;48.388;16.210;2022-08-05T14:25:53;36.70;67.40
45685;DHT22;46836;48.388;16.210;2022-08-05T14:28:24;36.70;66.90
45685;DHT22;46836;48.388;16.210;2022-08-05T14:30:53;36.70;67.50
45685;DHT22;46836;48.388;16.210;2022-08-05T14:33:21;36.80;67.30
45685;DHT22;46836;48.388;16.210;2022-08-05T14:35:50;36.80;67.30
45685;DHT22;46836;48.388;16.210;2022-08-05T14:38:21;36.80;67.00
45685;DHT22;46836;48.388;16.210;2022-08-05T14:41:03;36.80;67.00
45685;DHT22;46836;48.388;16.210;2022-08-05T14:43:34;36.80;66.50
45685;DHT22;46836;48.388;16.210;2022-08-05T14:46:22;36.80;66.60
45685;DHT22;46836;48.388;16.210;2022-08-05T14:48:57;36.80;66.90
45685;DHT22;46836;48.388;16.210;2022-08-05T14:51:32;36.80;66.30
45685;DHT22;46836;48.388;16.210;2022-08-05T14:53:59;36.80;66.70
45685;DHT22;46836;48.388;16.210;2022-08-05T14:56:47;36.70;66.60
45685;DHT22;46836;48.388;16.210;2022-08-05T14:59:16;36.70;67.30
45685;DHT22;46836;48.388;16.210;2022-08-05T15:01:47;36.60;66.50
45685;DHT22;46836;48.388;16.210;2022-08-05T15:04:18;36.60;66.90
45685;DHT22;46836;48.388;16.210;2022-08-05T15:06:49;36.70;66.80
45685;DHT22;46836;48.388;16.210;2022-08-05T15:09:18;36.70;65.50
45685;DHT22;46836;48.388;16.210;2022-08-05T15:12:06;36.60;65.40
45685;DHT22;46836;48.388;16.210;2022-08-05T15:14:35;36.70;64.90
45685;DHT22;46836;48.388;16.210;2022-08-05T15:17:17;36.70;65.60
45685;DHT22;46836;48.388;16.210;2022-08-05T15:20:06;36.70;66.10
45685;DHT22;46836;48.388;16.210;2022-08-05T15:22:46;36.80;66.40
45685;DHT22;46836;48.388;16.210;2022-08-05T15:25:22;36.80;66.30
45685;DHT22;46836;48.388;16.210;2022-08-05T15:28:09;36.70;66.80
45685;DHT22;46836;48.388;16.210;2022-08-05T15:30:40;36.80;66.80
45685;DHT22;46836;48.388;16.210;2022-08-05T15:33:09;36.70;66.20
45685;DHT22;46836;48.388;16.210;2022-08-05T15:35:37;36.70;66.30
45685;DHT22;46836;48.388;16.210;2022-08-05T15:38:11;36.80;66.80
45685;DHT22;46836;48.388;16.210;2022-08-05T15:40:58;36.70;66.90
45685;DHT22;46836;48.388;16.210;2022-08-05T15:43:45;36.70;66.50
45685;DHT22;46836;48.388;16.210;2022-08-05T15:46:13;36.80;67.60
45685;DHT22;46836;48.388;16.210;2022-08-05T15:48:41;36.80;67.50
45685;DHT22;46836;48.388;16.210;2022-08-05T15:51:25;36.80;67.30
45685;DHT22;46836;48.388;16.210;2022-08-05T15:54:12;36.80;67.10
45685;DHT22;46836;48.388;16.210;2022-08-05T15:56:41;36.80;67.50
45685;DHT22;46836;48.388;16.210;2022-08-05T15:59:09;36.60;67.20
45685;DHT22;46836;48.388;16.210;2022-08-05T16:01:49;36.50;67.50
45685;DHT22;46836;48.388;16.210;2022-08-05T16:04:20;36.30;67.40
45685;DHT22;46836;48.388;16.210;2022-08-05T16:06:52;36.10;67.70
45685;DHT22;46836;48.388;16.210;2022-08-05T16:09:22;35.90;68.40
45685;DHT22;46836;48.388;16.210;2022-08-05T16:11:50;35.80;68.70
45685;DHT22;46836;48.388;16.210;2022-08-05T16:14:20;35.80;69.40
45685;DHT22;46836;48.388;16.210;2022-08-05T16:16:48;35.70;69.70
45685;DHT22;46836;48.388;16.210;2022-08-05T16:19:15;35.70;70.10
45685;DHT22;46836;48.388;16.210;2022-08-05T16:22:04;35.60;70.70
45685;DHT22;46836;48.388;16.210;2022-08-05T16:24:32;35.50;70.40
45685;DHT22;46836;48.388;16.210;2022-08-05T16:27:08;35.50;70.60
45685;DHT22;46836;48.388;16.210;2022-08-05T16:29:41;35.40;71.10
45685;DHT22;46836;48.388;16.210;2022-08-05T16:32:18;35.30;72.00
45685;DHT22;46836;48.388;16.210;2022-08-05T16:34:55;35.10;72.50
45685;DHT22;46836;48.388;16.210;2022-08-05T16:37:25;35.00;72.40
45685;DHT22;46836;48.388;16.210;2022-08-05T16:40:13;34.90;72.40
45685;DHT22;46836;48.388;16.210;2022-08-05T16:42:54;34.90;72.90
45685;DHT22;46836;48.388;16.210;2022-08-05T16:45:21;34.80;73.40
45685;DHT22;46836;48.388;16.210;2022-08-05T16:48:09;34.70;73.90
45685;DHT22;46836;48.388;16.210;2022-08-05T16:50:36;34.60;74.40
45685;DHT22;46836;48.388;16.210;2022-08-05T16:53:03;34.50;75.00
45685;DHT22;46836;48.388;16.210;2022-08-05T16:55:38;34.50;75.70